createdAt,value
2023-02-22T00:02:59.700Z,-64
2023-02-22T00:08:01.022Z,-64
2023-02-22T00:13:02.211Z,-65
2023-02-22T00:18:03.471Z,-64
2023-02-22T00:23:07.101Z,-63
2023-02-22T00:28:08.310Z,-64
2023-02-22T00:33:09.517Z,-64
2023-02-22T00:38:10.744Z,-63
2023-02-22T00:43:11.894Z,-64
2023-02-22T00:48:13.150Z,-63
2023-02-22T00:53:14.370Z,-64
2023-02-22T00:58:15.584Z,-63
2023-02-22T01:03:16.786Z,-63
2023-02-22T01:08:18.178Z,-64
2023-02-22T01:13:19.878Z,-63
2023-02-22T01:18:21.919Z,-64
2023-02-22T01:23:23.117Z,-63
2023-02-22T01:28:24.274Z,-63
2023-02-22T01:33:25.647Z,-63
2023-02-22T01:38:26.857Z,-63
2023-02-22T01:43:27.998Z,-63
2023-02-22T01:48:29.258Z,-64
2023-02-22T01:53:30.417Z,-64
2023-02-22T01:58:31.643Z,-64
2023-02-22T02:03:33.190Z,-63
2023-02-22T02:08:36.070Z,-63
2023-02-22T02:13:37.315Z,-63
2023-02-22T02:18:38.475Z,-64
2023-02-22T02:23:40.991Z,-64
2023-02-22T02:28:42.160Z,-63
2023-02-22T02:33:43.366Z,-63
2023-02-22T02:38:44.706Z,-63
2023-02-22T02:43:45.916Z,-63
2023-02-22T02:48:47.082Z,-63
2023-02-22T02:53:48.353Z,-64
2023-02-22T02:58:49.524Z,-64
2023-02-22T03:03:50.691Z,-63
2023-02-22T03:08:51.886Z,-63
2023-02-22T03:13:53.061Z,-63
2023-02-22T03:18:54.225Z,-63
2023-02-22T03:23:55.447Z,-63
2023-02-22T03:28:56.642Z,-63
2023-02-22T03:33:57.857Z,-63
2023-02-22T03:38:59.069Z,-64
2023-02-22T03:44:00.272Z,-63
2023-02-22T03:49:01.480Z,-64
2023-02-22T03:54:02.648Z,-63
2023-02-22T03:59:03.791Z,-63
2023-02-22T04:04:05.017Z,-63
2023-02-22T04:09:08.560Z,-63
2023-02-22T04:14:09.726Z,-67
2023-02-22T04:19:10.914Z,-63
2023-02-22T04:24:12.392Z,-64
2023-02-22T04:29:13.566Z,-64
2023-02-22T04:34:14.944Z,-64
2023-02-22T04:39:16.145Z,-63
2023-02-22T04:44:17.372Z,-65
2023-02-22T04:49:18.541Z,-63
2023-02-22T04:54:19.683Z,-64
2023-02-22T04:59:20.950Z,-63
2023-02-22T05:04:22.155Z,-63
2023-02-22T05:09:23.359Z,-63
2023-02-22T05:14:27.648Z,-63
2023-02-22T05:19:28.782Z,-63
2023-02-22T05:24:30.135Z,-63
2023-02-22T05:29:31.328Z,-64
2023-02-22T05:34:32.486Z,-63
2023-02-22T05:39:33.650Z,-63
2023-02-22T05:44:34.782Z,-64
2023-02-22T05:49:35.937Z,-63
2023-02-22T05:54:37.134Z,-64
2023-02-22T05:59:38.307Z,-63
2023-02-22T06:04:40.285Z,-64
2023-02-22T06:09:41.578Z,-64
2023-02-22T06:14:45.891Z,-64
2023-02-22T06:19:47.087Z,-64
2023-02-22T06:24:48.297Z,-66
2023-02-22T06:29:49.499Z,-63
2023-02-22T06:34:50.625Z,-64
2023-02-22T06:39:51.883Z,-64
2023-02-22T06:44:53.033Z,-64
2023-02-22T06:49:54.387Z,-64
2023-02-22T06:54:55.584Z,-64
2023-02-22T06:59:57.309Z,-64
2023-02-22T07:04:58.505Z,-63
2023-02-22T07:09:59.713Z,-64
2023-02-22T07:15:01.079Z,-64
2023-02-22T07:20:02.214Z,-64
2023-02-22T07:25:03.429Z,-64
2023-02-22T07:30:04.647Z,-64
2023-02-22T07:35:05.854Z,-64
2023-02-22T07:40:07.084Z,-64
2023-02-22T07:45:08.292Z,-64
2023-02-22T07:50:09.449Z,-64
2023-02-22T07:55:10.638Z,-64
2023-02-22T08:00:11.906Z,-63
2023-02-22T08:05:13.103Z,-65
2023-02-22T08:10:14.320Z,-64
2023-02-22T08:15:15.522Z,-64
2023-02-22T08:20:16.702Z,-64
2023-02-22T08:25:17.941Z,-65
2023-02-22T08:30:19.238Z,-64
2023-02-22T08:35:20.474Z,-64
2023-02-22T08:40:21.680Z,-65
2023-02-22T08:45:22.928Z,-64
2023-02-22T08:50:24.279Z,-64
2023-02-22T08:55:25.523Z,-64
2023-02-22T09:00:26.761Z,-64
2023-02-22T09:05:30.357Z,-64
2023-02-22T09:10:32.365Z,-64
2023-02-22T09:15:35.790Z,-64
2023-02-22T09:20:37.028Z,-65
2023-02-22T09:25:40.686Z,-64
2023-02-22T09:30:41.966Z,-64
2023-02-22T09:35:46.121Z,-64
2023-02-22T09:40:47.368Z,-64
2023-02-22T09:45:48.591Z,-64
2023-02-22T09:50:49.861Z,-65
2023-02-22T09:55:51.005Z,-64
2023-02-22T10:00:54.093Z,-64
2023-02-22T10:05:56.801Z,-65
2023-02-22T10:10:58.012Z,-65
2023-02-22T10:15:59.175Z,-64
2023-02-22T10:21:00.501Z,-64
2023-02-22T10:26:01.724Z,-64
2023-02-22T10:31:03.122Z,-65
2023-02-22T10:36:04.366Z,-64
2023-02-22T10:41:05.543Z,-65
2023-02-22T10:46:06.824Z,-66
2023-02-22T10:51:08.521Z,-65
2023-02-22T10:56:09.771Z,-66
2023-02-22T11:01:11.082Z,-65
2023-02-22T11:06:12.682Z,-65
2023-02-22T11:11:13.955Z,-65
2023-02-22T11:16:15.144Z,-65
2023-02-22T11:21:18.921Z,-66
2023-02-22T11:26:20.710Z,-66
2023-02-22T11:31:22.421Z,-66
2023-02-22T11:36:23.628Z,-65
2023-02-22T11:41:24.879Z,-66
2023-02-22T11:46:26.347Z,-66
2023-02-22T11:51:27.699Z,-66
2023-02-22T11:56:37.614Z,-65
2023-02-22T12:01:39.443Z,-66
2023-02-22T12:06:40.673Z,-65
2023-02-22T12:11:43.208Z,-65
2023-02-22T12:16:44.411Z,-65
2023-02-22T12:21:45.574Z,-66
2023-02-22T12:26:47.250Z,-65
2023-02-22T12:31:48.486Z,-65
2023-02-22T12:36:49.717Z,-66
2023-02-22T12:41:52.800Z,-66
2023-02-22T12:46:53.967Z,-66
2023-02-22T12:51:55.297Z,-65
2023-02-22T12:56:56.492Z,-66
2023-02-22T13:01:58.250Z,-65
2023-02-22T13:06:59.507Z,-66
2023-02-22T13:12:00.747Z,-66
2023-02-22T13:17:01.943Z,-65
2023-02-22T13:22:03.164Z,-66
2023-02-22T13:27:04.395Z,-66
2023-02-22T13:32:06.042Z,-66
2023-02-22T13:37:07.217Z,-66
2023-02-22T13:42:08.363Z,-67
2023-02-22T13:47:09.540Z,-66
2023-02-22T13:52:12.126Z,-66
2023-02-22T13:57:13.337Z,-66
2023-02-22T14:02:14.542Z,-66
2023-02-22T14:07:15.673Z,-66
2023-02-22T14:12:16.886Z,-66
2023-02-22T14:17:18.037Z,-66
2023-02-22T14:22:19.806Z,-66
2023-02-22T14:27:21.012Z,-70
2023-02-22T14:32:24.534Z,-66
2023-02-22T14:37:25.786Z,-70
2023-02-22T14:42:27.035Z,-70
2023-02-22T14:47:29.295Z,-70
2023-02-22T14:52:30.542Z,-70
2023-02-22T14:57:31.762Z,-67
2023-02-22T15:02:35.546Z,-68
2023-02-22T15:07:36.737Z,-68
2023-02-22T15:12:37.882Z,-69
2023-02-22T15:17:39.113Z,-69
2023-02-22T15:22:40.342Z,-70
2023-02-22T15:27:41.586Z,-69
2023-02-22T15:32:53.739Z,-69
2023-02-22T15:38:01.396Z,-70
2023-02-22T15:43:02.783Z,-70
2023-02-22T15:48:04.000Z,-70
2023-02-22T15:53:05.228Z,-70
2023-02-22T15:58:06.620Z,-69
2023-02-22T16:03:07.805Z,-69
2023-02-22T16:08:08.975Z,-70
2023-02-22T16:13:16.648Z,-70
2023-02-22T16:18:26.934Z,-71
2023-02-22T16:23:28.123Z,-68
2023-02-22T16:28:33.936Z,-67
2023-02-22T16:33:35.147Z,-70
2023-02-22T16:38:38.478Z,-66
2023-02-22T16:43:39.743Z,-70
2023-02-22T16:48:40.897Z,-67
2023-02-22T16:53:42.081Z,-68
2023-02-22T16:58:43.272Z,-69
2023-02-22T17:03:44.637Z,-67
2023-02-22T17:08:45.794Z,-68
2023-02-22T17:13:51.516Z,-67
2023-02-22T17:18:52.781Z,-69
2023-02-22T17:23:53.966Z,-69
2023-02-22T17:28:55.141Z,-65
2023-02-22T17:33:56.352Z,-66
2023-02-22T17:38:57.716Z,-67
2023-02-22T17:43:59.022Z,-66
2023-02-22T17:49:00.209Z,-68
2023-02-22T17:54:01.353Z,-67
2023-02-22T17:59:03.674Z,-67
2023-02-22T18:04:05.246Z,-66
2023-02-22T18:09:10.447Z,-67
2023-02-22T18:14:12.304Z,-65
2023-02-22T18:19:14.474Z,-66
2023-02-22T18:24:17.510Z,-67
2023-02-22T18:29:18.713Z,-69
2023-02-22T18:34:21.858Z,-69
2023-02-22T18:39:22.998Z,-64
2023-02-22T18:44:26.951Z,-64
2023-02-22T18:49:28.184Z,-64
2023-02-22T18:54:29.309Z,-65
2023-02-22T18:59:30.484Z,-66
2023-02-22T19:04:31.661Z,-69
2023-02-22T19:09:32.844Z,-67
2023-02-22T19:14:34.028Z,-70
2023-02-22T19:19:35.352Z,-69
2023-02-22T19:24:36.515Z,-70
2023-02-22T19:29:38.913Z,-68
2023-02-22T19:34:43.874Z,-70
2023-02-22T19:39:45.076Z,-70
2023-02-22T19:44:48.291Z,-69
2023-02-22T19:49:49.943Z,-69
2023-02-22T19:54:51.155Z,-68
2023-02-22T19:59:52.356Z,-68
2023-02-22T20:04:55.142Z,-69
2023-02-22T20:09:56.282Z,-69
2023-02-22T20:14:58.489Z,-69
2023-02-22T20:19:59.937Z,-70
2023-02-22T20:25:01.156Z,-69
2023-02-22T20:30:02.320Z,-69
2023-02-22T20:35:03.463Z,-70
2023-02-22T20:40:05.409Z,-69
2023-02-22T20:45:08.008Z,-69
2023-02-22T20:50:09.826Z,-69
2023-02-22T20:55:11.484Z,-68
2023-02-22T21:00:12.684Z,-70
2023-02-22T21:05:14.011Z,-69
2023-02-22T21:10:16.283Z,-64
2023-02-22T21:15:17.505Z,-65
2023-02-22T21:20:21.746Z,-66
2023-02-22T21:25:22.937Z,-64
2023-02-22T21:30:24.144Z,-65
2023-02-22T21:35:25.335Z,-64
2023-02-22T21:40:27.463Z,-68
2023-02-22T21:45:29.351Z,-64
2023-02-22T21:50:30.776Z,-65
2023-02-22T21:55:31.952Z,-64
2023-02-22T22:00:38.182Z,-66
2023-02-22T22:05:39.508Z,-65
2023-02-22T22:10:40.654Z,-65
2023-02-22T22:15:43.010Z,-69
2023-02-22T22:20:44.874Z,-65
2023-02-22T22:25:46.069Z,-69
2023-02-22T22:30:48.640Z,-69
2023-02-22T22:35:49.883Z,-66
2023-02-22T22:40:52.854Z,-65
2023-02-22T22:45:54.047Z,-65
2023-02-22T22:50:55.196Z,-65
2023-02-22T22:55:56.434Z,-64
2023-02-22T23:01:01.643Z,-66
2023-02-22T23:06:03.668Z,-66
2023-02-22T23:11:04.864Z,-66
2023-02-22T23:16:06.108Z,-65
2023-02-22T23:21:07.258Z,-66
2023-02-22T23:26:20.517Z,-66
2023-02-22T23:31:22.050Z,-66
2023-02-22T23:36:23.695Z,-65
2023-02-22T23:41:28.076Z,-66
2023-02-22T23:46:32.711Z,-66
2023-02-22T23:51:40.086Z,-65
2023-02-22T23:56:47.123Z,-65
